sensor_id;sensor_type;location;lat;lon;timestamp;pressure;altitude;pressure_sealevel;temperature;humidity
80323;BME280;69636;52.372;13.610;2024-03-25T00:00:45;99539.66;;;4.47;100.00
80323;BME280;69636;52.372;13.610;2024-03-25T00:03:11;99546.56;;;4.48;100.00
80323;BME280;69636;52.372;13.610;2024-03-25T00:05:38;99545.75;;;4.47;100.00
80323;BME280;69636;52.372;13.610;2024-03-25T00:08:04;99549.34;;;4.46;100.00
80323;BME280;69636;52.372;13.610;2024-03-25T00:10:32;99549.06;;;4.49;100.00
80323;BME280;69636;52.372;13.610;2024-03-25T00:12:58;99542.56;;;4.53;100.00
80323;BME280;69636;52.372;13.610;2024-03-25T00:15:25;99545.19;;;4.53;100.00
80323;BME280;69636;52.372;13.610;2024-03-25T00:17:51;99547.13;;;4.51;100.00
80323;BME280;69636;52.372;13.610;2024-03-25T00:20:17;99554.59;;;4.46;100.00
80323;BME280;69636;52.372;13.610;2024-03-25T00:22:43;99554.31;;;4.49;100.00
80323;BME280;69636;52.372;13.610;2024-03-25T00:25:10;99546.44;;;4.49;100.00
80323;BME280;69636;52.372;13.610;2024-03-25T00:27:37;99557.22;;;4.46;100.00
80323;BME280;69636;52.372;13.610;2024-03-25T00:30:05;99558.88;;;4.47;100.00
80323;BME280;69636;52.372;13.610;2024-03-25T00:32:32;99558.47;;;4.42;100.00
80323;BME280;69636;52.372;13.610;2024-03-25T00:34:58;99564.53;;;4.52;100.00
80323;BME280;69636;52.372;13.610;2024-03-25T00:37:24;99564.81;;;4.59;100.00
80323;BME280;69636;52.372;13.610;2024-03-25T00:39:51;99560.91;;;4.63;100.00
80323;BME280;69636;52.372;13.610;2024-03-25T00:42:17;99567.00;;;4.63;100.00
80323;BME280;69636;52.372;13.610;2024-03-25T00:44:45;99563.13;;;4.67;100.00
80323;BME280;69636;52.372;13.610;2024-03-25T00:47:11;99573.63;;;4.67;100.00
80323;BME280;69636;52.372;13.610;2024-03-25T00:49:37;99573.31;;;4.70;100.00
80323;BME280;69636;52.372;13.610;2024-03-25T00:52:04;99568.13;;;4.61;100.00
80323;BME280;69636;52.372;13.610;2024-03-25T00:54:30;99573.25;;;4.53;100.00
80323;BME280;69636;52.372;13.610;2024-03-25T00:56:57;99577.97;;;4.49;100.00
80323;BME280;69636;52.372;13.610;2024-03-25T00:59:23;99580.00;;;4.65;100.00
80323;BME280;69636;52.372;13.610;2024-03-25T01:01:51;99577.81;;;4.60;100.00
80323;BME280;69636;52.372;13.610;2024-03-25T01:04:17;99581.41;;;4.59;100.00
80323;BME280;69636;52.372;13.610;2024-03-25T01:06:43;99579.47;;;4.61;100.00
80323;BME280;69636;52.372;13.610;2024-03-25T01:09:10;99586.81;;;4.58;100.00
80323;BME280;69636;52.372;13.610;2024-03-25T01:11:36;99586.09;;;4.65;100.00
80323;BME280;69636;52.372;13.610;2024-03-25T01:14:02;99588.31;;;4.60;100.00
80323;BME280;69636;52.372;13.610;2024-03-25T01:16:29;99592.47;;;4.63;100.00
80323;BME280;69636;52.372;13.610;2024-03-25T01:18:56;99586.47;;;4.70;100.00
80323;BME280;69636;52.372;13.610;2024-03-25T01:21:23;99594.34;;;4.70;100.00
80323;BME280;69636;52.372;13.610;2024-03-25T01:23:49;99597.94;;;4.69;100.00
80323;BME280;69636;52.372;13.610;2024-03-25T01:26:16;99595.78;;;4.65;100.00
80323;BME280;69636;52.372;13.610;2024-03-25T01:28:42;99587.22;;;4.63;100.00
80323;BME280;69636;52.372;13.610;2024-03-25T01:31:09;99603.53;;;4.66;100.00
80323;BME280;69636;52.372;13.610;2024-03-25T01:33:35;99600.91;;;4.66;100.00
80323;BME280;69636;52.372;13.610;2024-03-25T01:36:03;99607.94;;;4.66;100.00
80323;BME280;69636;52.372;13.610;2024-03-25T01:38:29;99608.38;;;4.61;100.00
80323;BME280;69636;52.372;13.610;2024-03-25T01:41:07;99604.66;;;4.54;100.00
80323;BME280;69636;52.372;13.610;2024-03-25T01:43:33;99611.56;;;4.55;100.00
80323;BME280;69636;52.372;13.610;2024-03-25T01:45:59;99617.94;;;4.53;100.00
80323;BME280;69636;52.372;13.610;2024-03-25T01:48:26;99617.09;;;4.52;100.00
80323;BME280;69636;52.372;13.610;2024-03-25T01:50:53;99622.63;;;4.49;100.00
80323;BME280;69636;52.372;13.610;2024-03-25T01:53:21;99620.28;;;4.46;100.00
80323;BME280;69636;52.372;13.610;2024-03-25T01:55:48;99631.50;;;4.48;100.00
80323;BME280;69636;52.372;13.610;2024-03-25T01:58:15;99624.84;;;4.44;100.00
80323;BME280;69636;52.372;13.610;2024-03-25T02:00:42;99629.69;;;4.49;100.00
80323;BME280;69636;52.372;13.610;2024-03-25T02:03:09;99622.91;;;4.46;100.00
80323;BME280;69636;52.372;13.610;2024-03-25T02:05:35;99631.50;;;4.48;100.00
80323;BME280;69636;52.372;13.610;2024-03-25T02:08:03;99630.44;;;4.41;100.00
80323;BME280;69636;52.372;13.610;2024-03-25T02:10:32;99644.53;;;4.40;100.00
80323;BME280;69636;52.372;13.610;2024-03-25T02:12:58;99640.09;;;4.40;100.00
80323;BME280;69636;52.372;13.610;2024-03-25T02:15:24;99646.47;;;4.38;100.00
80323;BME280;69636;52.372;13.610;2024-03-25T02:17:51;99640.25;;;4.39;100.00
80323;BME280;69636;52.372;13.610;2024-03-25T02:20:17;99645.50;;;4.39;100.00
80323;BME280;69636;52.372;13.610;2024-03-25T02:22:44;99648.13;;;4.39;100.00
80323;BME280;69636;52.372;13.610;2024-03-25T02:25:10;99653.25;;;4.40;100.00
80323;BME280;69636;52.372;13.610;2024-03-25T02:27:38;99660.56;;;4.37;100.00
80323;BME280;69636;52.372;13.610;2024-03-25T02:30:05;99667.22;;;4.41;100.00
80323;BME280;69636;52.372;13.610;2024-03-25T02:32:32;99666.09;;;4.34;100.00
80323;BME280;69636;52.372;13.610;2024-03-25T02:34:58;99660.56;;;4.37;100.00
80323;BME280;69636;52.372;13.610;2024-03-25T02:37:25;99663.59;;;4.42;100.00
80323;BME280;69636;52.372;13.610;2024-03-25T02:39:52;99649.94;;;4.38;100.00
80323;BME280;69636;52.372;13.610;2024-03-25T02:42:19;99658.06;;;4.45;100.00
80323;BME280;69636;52.372;13.610;2024-03-25T02:44:47;99667.19;;;4.51;100.00
80323;BME280;69636;52.372;13.610;2024-03-25T02:47:14;99665.50;;;4.59;100.00
80323;BME280;69636;52.372;13.610;2024-03-25T02:49:40;99668.41;;;4.66;100.00
80323;BME280;69636;52.372;13.610;2024-03-25T02:52:06;99674.38;;;4.58;100.00
80323;BME280;69636;52.372;13.610;2024-03-25T02:54:33;99670.75;;;4.59;100.00
80323;BME280;69636;52.372;13.610;2024-03-25T02:56:59;99682.22;;;4.68;100.00
80323;BME280;69636;52.372;13.610;2024-03-25T02:59:25;99677.78;;;4.68;100.00
80323;BME280;69636;52.372;13.610;2024-03-25T03:01:53;99677.13;;;4.66;100.00
80323;BME280;69636;52.372;13.610;2024-03-25T03:04:19;99683.78;;;4.61;100.00
80323;BME280;69636;52.372;13.610;2024-03-25T03:06:46;99689.03;;;4.61;100.00
80323;BME280;69636;52.372;13.610;2024-03-25T03:09:12;99694.00;;;4.54;100.00
80323;BME280;69636;52.372;13.610;2024-03-25T03:11:38;99694.56;;;4.48;100.00
80323;BME280;69636;52.372;13.610;2024-03-25T03:14:05;99689.59;;;4.45;100.00
80323;BME280;69636;52.372;13.610;2024-03-25T03:16:31;99698.44;;;4.44;100.00
80323;BME280;69636;52.372;13.610;2024-03-25T03:18:59;99694.84;;;4.45;100.00
80323;BME280;69636;52.372;13.610;2024-03-25T03:21:25;99700.66;;;4.49;100.00
80323;BME280;69636;52.372;13.610;2024-03-25T03:23:51;99703.28;;;4.58;100.00
80323;BME280;69636;52.372;13.610;2024-03-25T03:26:17;99710.59;;;4.55;100.00
80323;BME280;69636;52.372;13.610;2024-03-25T03:28:44;99714.22;;;4.54;100.00
80323;BME280;69636;52.372;13.610;2024-03-25T03:31:10;99717.81;;;4.62;100.00
80323;BME280;69636;52.372;13.610;2024-03-25T03:33:36;99715.19;;;4.62;100.00
80323;BME280;69636;52.372;13.610;2024-03-25T03:36:05;99722.66;;;4.57;100.00
80323;BME280;69636;52.372;13.610;2024-03-25T03:38:32;99730.25;;;4.60;100.00
80323;BME280;69636;52.372;13.610;2024-03-25T03:40:58;99727.47;;;4.52;100.00
80323;BME280;69636;52.372;13.610;2024-03-25T03:43:25;99732.19;;;4.49;100.00
80323;BME280;69636;52.372;13.610;2024-03-25T03:45:51;99740.50;;;4.54;100.00
80323;BME280;69636;52.372;13.610;2024-03-25T03:48:18;99740.34;;;4.55;100.00
80323;BME280;69636;52.372;13.610;2024-03-25T03:50:44;99742.69;;;4.58;100.00
80323;BME280;69636;52.372;13.610;2024-03-25T03:53:12;99749.91;;;4.56;100.00
80323;BME280;69636;52.372;13.610;2024-03-25T03:55:38;99754.88;;;4.59;100.00
80323;BME280;69636;52.372;13.610;2024-03-25T03:58:05;99751.97;;;4.62;100.00
80323;BME280;69636;52.372;13.610;2024-03-25T04:00:33;99759.84;;;4.62;100.00
80323;BME280;69636;52.372;13.610;2024-03-25T04:02:59;99760.94;;;4.69;100.00
80323;BME280;69636;52.372;13.610;2024-03-25T04:05:28;99766.50;;;4.66;100.00
80323;BME280;69636;52.372;13.610;2024-03-25T04:07:55;99769.13;;;4.66;100.00
80323;BME280;69636;52.372;13.610;2024-03-25T04:10:23;99764.84;;;4.65;100.00
80323;BME280;69636;52.372;13.610;2024-03-25T04:12:49;99776.19;;;4.66;100.00
80323;BME280;69636;52.372;13.610;2024-03-25T04:15:16;99768.44;;;4.64;100.00
80323;BME280;69636;52.372;13.610;2024-03-25T04:17:42;99776.72;;;4.69;100.00
80323;BME280;69636;52.372;13.610;2024-03-25T04:20:10;99775.63;;;4.62;100.00
80323;BME280;69636;52.372;13.610;2024-03-25T04:22:36;99778.66;;;4.58;100.00
80323;BME280;69636;52.372;13.610;2024-03-25T04:25:03;99780.88;;;4.62;100.00
80323;BME280;69636;52.372;13.610;2024-03-25T04:27:30;99785.44;;;4.60;100.00
80323;BME280;69636;52.372;13.610;2024-03-25T04:29:57;99791.41;;;4.62;100.00
80323;BME280;69636;52.372;13.610;2024-03-25T04:32:23;99794.72;;;4.64;100.00
80323;BME280;69636;52.372;13.610;2024-03-25T04:34:49;99797.91;;;4.58;100.00
80323;BME280;69636;52.372;13.610;2024-03-25T04:37:16;99804.94;;;4.48;100.00
80323;BME280;69636;52.372;13.610;2024-03-25T04:39:42;99808.25;;;4.50;100.00
80323;BME280;69636;52.372;13.610;2024-03-25T04:42:08;99806.31;;;4.52;100.00
80323;BME280;69636;52.372;13.610;2024-03-25T04:44:36;99813.50;;;4.50;100.00
80323;BME280;69636;52.372;13.610;2024-03-25T04:47:02;99823.75;;;4.43;100.00
80323;BME280;69636;52.372;13.610;2024-03-25T04:49:29;99827.63;;;4.49;100.00
80323;BME280;69636;52.372;13.610;2024-03-25T04:51:56;99825.69;;;4.51;100.00
80323;BME280;69636;52.372;13.610;2024-03-25T04:54:22;99829.13;;;4.42;100.00
80323;BME280;69636;52.372;13.610;2024-03-25T04:56:49;99836.47;;;4.48;100.00
80323;BME280;69636;52.372;13.610;2024-03-25T04:59:15;99842.81;;;4.46;100.00
80323;BME280;69636;52.372;13.610;2024-03-25T05:01:43;99838.28;;;4.48;100.00
80323;BME280;69636;52.372;13.610;2024-03-25T05:04:09;99847.28;;;4.55;100.00
80323;BME280;69636;52.372;13.610;2024-03-25T05:06:35;99849.50;;;4.59;100.00
80323;BME280;69636;52.372;13.610;2024-03-25T05:09:02;99843.13;;;4.52;100.00
80323;BME280;69636;52.372;13.610;2024-03-25T05:11:28;99850.88;;;4.54;100.00
80323;BME280;69636;52.372;13.610;2024-03-25T05:13:55;99859.19;;;4.59;100.00
80323;BME280;69636;52.372;13.610;2024-03-25T05:16:21;99855.03;;;4.56;100.00
80323;BME280;69636;52.372;13.610;2024-03-25T05:18:49;99854.34;;;4.54;100.00
80323;BME280;69636;52.372;13.610;2024-03-25T05:21:15;99860.97;;;4.58;100.00
80323;BME280;69636;52.372;13.610;2024-03-25T05:23:41;99865.00;;;4.62;100.00
80323;BME280;69636;52.372;13.610;2024-03-25T05:26:08;99869.56;;;4.60;100.00
80323;BME280;69636;52.372;13.610;2024-03-25T05:28:34;99872.47;;;4.67;100.00
80323;BME280;69636;52.372;13.610;2024-03-25T05:31:05;99873.59;;;4.64;100.00
80323;BME280;69636;52.372;13.610;2024-03-25T05:33:31;99879.94;;;4.71;100.00
80323;BME280;69636;52.372;13.610;2024-03-25T05:35:59;99879.66;;;4.74;100.00
80323;BME280;69636;52.372;13.610;2024-03-25T05:38:26;99884.91;;;4.74;100.00
80323;BME280;69636;52.372;13.610;2024-03-25T05:40:52;99892.69;;;4.66;100.00
80323;BME280;69636;52.372;13.610;2024-03-25T05:43:19;99891.03;;;4.65;100.00
80323;BME280;69636;52.372;13.610;2024-03-25T05:45:50;99896.13;;;4.76;100.00
80323;BME280;69636;52.372;13.610;2024-03-25T05:48:16;99907.34;;;4.78;100.00
80323;BME280;69636;52.372;13.610;2024-03-25T05:50:43;99906.22;;;4.71;100.00
80323;BME280;69636;52.372;13.610;2024-03-25T05:53:10;99912.88;;;4.75;100.00
80323;BME280;69636;52.372;13.610;2024-03-25T05:55:37;99914.84;;;4.93;100.00
80323;BME280;69636;52.372;13.610;2024-03-25T05:58:03;99913.16;;;4.82;100.00
80323;BME280;69636;52.372;13.610;2024-03-25T06:00:30;99922.44;;;4.86;100.00
80323;BME280;69636;52.372;13.610;2024-03-25T06:02:56;99921.63;;;4.86;100.00
80323;BME280;69636;52.372;13.610;2024-03-25T06:05:23;99929.78;;;4.92;100.00
80323;BME280;69636;52.372;13.610;2024-03-25T06:07:49;99921.47;;;4.87;100.00
80323;BME280;69636;52.372;13.610;2024-03-25T06:10:17;99924.50;;;4.83;100.00
80323;BME280;69636;52.372;13.610;2024-03-25T06:12:43;99936.28;;;4.78;100.00
80323;BME280;69636;52.372;13.610;2024-03-25T06:15:10;99941.41;;;4.80;100.00
80323;BME280;69636;52.372;13.610;2024-03-25T06:17:36;99949.16;;;4.82;100.00
80323;BME280;69636;52.372;13.610;2024-03-25T06:20:03;99947.31;;;4.72;100.00
80323;BME280;69636;52.372;13.610;2024-03-25T06:22:29;99952.16;;;4.58;100.00
80323;BME280;69636;52.372;13.610;2024-03-25T06:24:55;99955.16;;;4.53;100.00
80323;BME280;69636;52.372;13.610;2024-03-25T06:27:23;99959.03;;;4.49;100.00
80323;BME280;69636;52.372;13.610;2024-03-25T06:29:50;99957.09;;;4.51;100.00
80323;BME280;69636;52.372;13.610;2024-03-25T06:32:16;99965.72;;;4.63;100.00
80323;BME280;69636;52.372;13.610;2024-03-25T06:34:42;99963.78;;;4.74;100.00
80323;BME280;69636;52.372;13.610;2024-03-25T06:37:08;99967.97;;;4.87;100.00
80323;BME280;69636;52.372;13.610;2024-03-25T06:39:35;99976.53;;;4.79;100.00
80323;BME280;69636;52.372;13.610;2024-03-25T06:42:01;99980.13;;;4.78;100.00
80323;BME280;69636;52.372;13.610;2024-03-25T06:44:29;99980.00;;;4.80;100.00
80323;BME280;69636;52.372;13.610;2024-03-25T06:46:55;99992.72;;;4.74;100.00
80323;BME280;69636;52.372;13.610;2024-03-25T06:49:22;99986.09;;;4.80;100.00
80323;BME280;69636;52.372;13.610;2024-03-25T06:51:48;99991.75;;;4.75;100.00
80323;BME280;69636;52.372;13.610;2024-03-25T06:54:14;99995.88;;;4.68;100.00
80323;BME280;69636;52.372;13.610;2024-03-25T06:56:40;99998.66;;;4.76;100.00
80323;BME280;69636;52.372;13.610;2024-03-25T06:59:07;100000.34;;;4.77;100.00
80323;BME280;69636;52.372;13.610;2024-03-25T07:01:34;100007.53;;;4.75;100.00
80323;BME280;69636;52.372;13.610;2024-03-25T07:04:01;100012.78;;;4.75;100.00
80323;BME280;69636;52.372;13.610;2024-03-25T07:06:27;100017.34;;;4.73;100.00
80323;BME280;69636;52.372;13.610;2024-03-25T07:08:53;100019.72;;;4.76;100.00
80323;BME280;69636;52.372;13.610;2024-03-25T07:11:20;100026.31;;;4.71;100.00
80323;BME280;69636;52.372;13.610;2024-03-25T07:13:46;100022.22;;;4.78;100.00
80323;BME280;69636;52.372;13.610;2024-03-25T07:16:12;100028.00;;;4.72;100.00
80323;BME280;69636;52.372;13.610;2024-03-25T07:18:40;100031.03;;;4.67;100.00
80323;BME280;69636;52.372;13.610;2024-03-25T07:21:06;100035.75;;;4.73;100.00
80323;BME280;69636;52.372;13.610;2024-03-25T07:23:33;100042.94;;;4.71;100.00
80323;BME280;69636;52.372;13.610;2024-03-25T07:25:59;100039.34;;;4.72;100.00
80323;BME280;69636;52.372;13.610;2024-03-25T07:28:25;100043.19;;;4.68;100.00
80323;BME280;69636;52.372;13.610;2024-03-25T07:30:52;100046.41;;;4.72;100.00
80323;BME280;69636;52.372;13.610;2024-03-25T07:33:18;100049.19;;;4.80;100.00
80323;BME280;69636;52.372;13.610;2024-03-25T07:35:46;100048.75;;;4.75;100.00
80323;BME280;69636;52.372;13.610;2024-03-25T07:38:12;100055.50;;;4.68;100.00
80323;BME280;69636;52.372;13.610;2024-03-25T07:40:38;100058.97;;;4.68;100.00
80323;BME280;69636;52.372;13.610;2024-03-25T07:43:05;100065.63;;;4.63;100.00
80323;BME280;69636;52.372;13.610;2024-03-25T07:45:31;100071.16;;;4.69;100.00
80323;BME280;69636;52.372;13.610;2024-03-25T07:47:57;100070.06;;;4.72;100.00
80323;BME280;69636;52.372;13.610;2024-03-25T07:50:24;100078.00;;;4.82;100.00
80323;BME280;69636;52.372;13.610;2024-03-25T07:52:51;100075.41;;;5.01;100.00
80323;BME280;69636;52.372;13.610;2024-03-25T07:55:18;100078.75;;;5.03;100.00
80323;BME280;69636;52.372;13.610;2024-03-25T07:57:44;100078.47;;;5.06;100.00
80323;BME280;69636;52.372;13.610;2024-03-25T08:00:11;100087.34;;;5.05;100.00
80323;BME280;69636;52.372;13.610;2024-03-25T08:02:38;100083.06;;;5.14;100.00
80323;BME280;69636;52.372;13.610;2024-03-25T08:05:05;100093.59;;;5.23;100.00
80323;BME280;69636;52.372;13.610;2024-03-25T08:07:31;100094.56;;;5.13;100.00
80323;BME280;69636;52.372;13.610;2024-03-25T08:09:59;100088.06;;;5.17;100.00
80323;BME280;69636;52.372;13.610;2024-03-25T08:12:25;100095.13;;;5.16;100.00
80323;BME280;69636;52.372;13.610;2024-03-25T08:14:52;100107.59;;;5.14;100.00
80323;BME280;69636;52.372;13.610;2024-03-25T08:17:18;100101.50;;;5.23;100.00
80323;BME280;69636;52.372;13.610;2024-03-25T08:19:44;100112.19;;;5.31;100.00
80323;BME280;69636;52.372;13.610;2024-03-25T08:22:10;100114.84;;;5.51;100.00
80323;BME280;69636;52.372;13.610;2024-03-25T08:24:37;100114.59;;;5.63;100.00
80323;BME280;69636;52.372;13.610;2024-03-25T08:27:05;100109.19;;;5.84;100.00
80323;BME280;69636;52.372;13.610;2024-03-25T08:29:31;100121.25;;;5.58;100.00
80323;BME280;69636;52.372;13.610;2024-03-25T08:31:58;100129.25;;;5.46;100.00
80323;BME280;69636;52.372;13.610;2024-03-25T08:34:24;100126.47;;;5.48;100.00
80323;BME280;69636;52.372;13.610;2024-03-25T08:36:50;100134.84;;;5.63;100.00
80323;BME280;69636;52.372;13.610;2024-03-25T08:39:17;100136.22;;;5.57;100.00
80323;BME280;69636;52.372;13.610;2024-03-25T08:41:43;100143.69;;;5.62;100.00
80323;BME280;69636;52.372;13.610;2024-03-25T08:44:11;100135.81;;;5.71;100.00
80323;BME280;69636;52.372;13.610;2024-03-25T08:46:37;100137.91;;;5.68;100.00
80323;BME280;69636;52.372;13.610;2024-03-25T08:49:03;100143.69;;;5.62;100.00
80323;BME280;69636;52.372;13.610;2024-03-25T08:51:30;100148.00;;;5.63;100.00
80323;BME280;69636;52.372;13.610;2024-03-25T08:53:56;100148.44;;;5.68;100.00
80323;BME280;69636;52.372;13.610;2024-03-25T08:56:22;100149.78;;;5.72;100.00
80323;BME280;69636;52.372;13.610;2024-03-25T08:58:49;100146.75;;;5.67;100.00
80323;BME280;69636;52.372;13.610;2024-03-25T09:01:16;100150.63;;;5.72;100.00
80323;BME280;69636;52.372;13.610;2024-03-25T09:03:43;100158.97;;;5.77;100.00
80323;BME280;69636;52.372;13.610;2024-03-25T09:06:09;100167.59;;;5.89;100.00
80323;BME280;69636;52.372;13.610;2024-03-25T09:08:35;100167.88;;;6.05;100.00
80323;BME280;69636;52.372;13.610;2024-03-25T09:11:02;100164.56;;;6.23;100.00
80323;BME280;69636;52.372;13.610;2024-03-25T09:13:29;100177.84;;;6.31;100.00
80323;BME280;69636;52.372;13.610;2024-03-25T09:15:55;100173.69;;;6.38;100.00
80323;BME280;69636;52.372;13.610;2024-03-25T09:18:23;100176.75;;;6.43;100.00
80323;BME280;69636;52.372;13.610;2024-03-25T09:20:49;100179.38;;;6.43;100.00
80323;BME280;69636;52.372;13.610;2024-03-25T09:23:16;100180.31;;;6.61;100.00
80323;BME280;69636;52.372;13.610;2024-03-25T09:25:51;100185.53;;;6.80;100.00
80323;BME280;69636;52.372;13.610;2024-03-25T09:28:18;100188.72;;;6.84;100.00
80323;BME280;69636;52.372;13.610;2024-03-25T09:30:44;100184.56;;;6.81;100.00
80323;BME280;69636;52.372;13.610;2024-03-25T09:33:10;100186.63;;;6.88;100.00
80323;BME280;69636;52.372;13.610;2024-03-25T09:35:38;100179.91;;;7.03;100.00
80323;BME280;69636;52.372;13.610;2024-03-25T09:38:05;100196.09;;;7.27;100.00
80323;BME280;69636;52.372;13.610;2024-03-25T09:40:31;100192.69;;;7.35;100.00
80323;BME280;69636;52.372;13.610;2024-03-25T09:43:00;100194.50;;;7.34;100.00
80323;BME280;69636;52.372;13.610;2024-03-25T09:45:29;100202.72;;;7.31;100.00
80323;BME280;69636;52.372;13.610;2024-03-25T09:47:56;100200.84;;;7.14;100.00
80323;BME280;69636;52.372;13.610;2024-03-25T09:50:23;100205.22;;;6.96;100.00
80323;BME280;69636;52.372;13.610;2024-03-25T09:52:51;100205.25;;;6.86;100.00
80323;BME280;69636;52.372;13.610;2024-03-25T09:55:17;100212.78;;;6.71;100.00
80323;BME280;69636;52.372;13.610;2024-03-25T09:57:44;100211.41;;;6.58;100.00
80323;BME280;69636;52.372;13.610;2024-03-25T10:00:12;100216.69;;;6.29;100.00
80323;BME280;69636;52.372;13.610;2024-03-25T10:02:39;100225.84;;;6.25;100.00
80323;BME280;69636;52.372;13.610;2024-03-25T10:05:05;100223.78;;;6.38;100.00
80323;BME280;69636;52.372;13.610;2024-03-25T10:07:32;100220.84;;;6.70;100.00
80323;BME280;69636;52.372;13.610;2024-03-25T10:10:03;100223.00;;;6.94;100.00
80323;BME280;69636;52.372;13.610;2024-03-25T10:12:30;100222.66;;;7.16;100.00
80323;BME280;69636;52.372;13.610;2024-03-25T10:14:56;100234.22;;;7.42;100.00
80323;BME280;69636;52.372;13.610;2024-03-25T10:17:22;100230.50;;;7.63;100.00
80323;BME280;69636;52.372;13.610;2024-03-25T10:19:49;100229.34;;;7.47;100.00
80323;BME280;69636;52.372;13.610;2024-03-25T10:22:15;100230.50;;;7.63;100.00
80323;BME280;69636;52.372;13.610;2024-03-25T10:24:42;100234.34;;;7.51;100.00
80323;BME280;69636;52.372;13.610;2024-03-25T10:27:20;100234.84;;;7.54;100.00
80323;BME280;69636;52.372;13.610;2024-03-25T10:29:46;100235.69;;;7.82;100.00
80323;BME280;69636;52.372;13.610;2024-03-25T10:32:13;100234.59;;;8.02;100.00
80323;BME280;69636;52.372;13.610;2024-03-25T10:34:39;100243.13;;;8.32;100.00
80323;BME280;69636;52.372;13.610;2024-03-25T10:37:09;100239.00;;;8.29;100.00
80323;BME280;69636;52.372;13.610;2024-03-25T10:39:39;100240.47;;;8.32;100.00
80323;BME280;69636;52.372;13.610;2024-03-25T10:42:06;100237.59;;;8.53;100.00
80323;BME280;69636;52.372;13.610;2024-03-25T10:44:34;100242.09;;;8.60;100.00
80323;BME280;69636;52.372;13.610;2024-03-25T10:47:03;100240.16;;;8.88;100.00
80323;BME280;69636;52.372;13.610;2024-03-25T10:49:34;100231.53;;;8.42;99.12
80323;BME280;69636;52.372;13.610;2024-03-25T10:52:05;100241.88;;;8.36;98.00
80323;BME280;69636;52.372;13.610;2024-03-25T10:54:33;100230.16;;;8.21;99.21
80323;BME280;69636;52.372;13.610;2024-03-25T10:57:00;100238.22;;;8.01;98.10
80323;BME280;69636;52.372;13.610;2024-03-25T10:59:29;100235.28;;;8.22;99.56
80323;BME280;69636;52.372;13.610;2024-03-25T11:01:58;100232.75;;;8.48;98.78
80323;BME280;69636;52.372;13.610;2024-03-25T11:04:24;100240.66;;;8.30;95.90
80323;BME280;69636;52.372;13.610;2024-03-25T11:06:51;100238.94;;;8.39;96.99
80323;BME280;69636;52.372;13.610;2024-03-25T11:09:24;100246.34;;;8.53;97.41
80323;BME280;69636;52.372;13.610;2024-03-25T11:11:50;100249.56;;;8.65;97.21
80323;BME280;69636;52.372;13.610;2024-03-25T11:14:16;100244.50;;;8.71;96.16
80323;BME280;69636;52.372;13.610;2024-03-25T11:16:43;100242.75;;;8.80;93.77
80323;BME280;69636;52.372;13.610;2024-03-25T11:19:12;100241.50;;;8.92;91.23
80323;BME280;69636;52.372;13.610;2024-03-25T11:21:38;100241.06;;;8.53;90.47
80323;BME280;69636;52.372;13.610;2024-03-25T11:24:08;100244.78;;;8.15;93.00
80323;BME280;69636;52.372;13.610;2024-03-25T11:26:34;100241.66;;;7.84;92.92
80323;BME280;69636;52.372;13.610;2024-03-25T11:29:01;100247.75;;;7.67;94.76
80323;BME280;69636;52.372;13.610;2024-03-25T11:31:27;100248.81;;;7.46;95.29
80323;BME280;69636;52.372;13.610;2024-03-25T11:33:54;100253.19;;;7.56;95.49
80323;BME280;69636;52.372;13.610;2024-03-25T11:36:22;100253.28;;;7.73;95.51
80323;BME280;69636;52.372;13.610;2024-03-25T11:38:57;100254.03;;;7.83;95.58
80323;BME280;69636;52.372;13.610;2024-03-25T11:41:24;100247.81;;;8.02;92.55
80323;BME280;69636;52.372;13.610;2024-03-25T11:43:50;100241.00;;;8.00;92.01
80323;BME280;69636;52.372;13.610;2024-03-25T11:46:18;100251.06;;;8.32;92.47
80323;BME280;69636;52.372;13.610;2024-03-25T11:48:44;100242.78;;;8.88;86.62
80323;BME280;69636;52.372;13.610;2024-03-25T11:51:12;100250.53;;;9.33;86.19
80323;BME280;69636;52.372;13.610;2024-03-25T11:53:40;100239.47;;;9.80;85.96
80323;BME280;69636;52.372;13.610;2024-03-25T11:56:06;100245.72;;;10.21;78.65
80323;BME280;69636;52.372;13.610;2024-03-25T11:58:32;100246.59;;;10.70;78.58
80323;BME280;69636;52.372;13.610;2024-03-25T12:01:00;100243.13;;;10.53;77.23
80323;BME280;69636;52.372;13.610;2024-03-25T12:03:26;100240.31;;;10.63;75.33
80323;BME280;69636;52.372;13.610;2024-03-25T12:05:53;100240.72;;;10.18;76.81
80323;BME280;69636;52.372;13.610;2024-03-25T12:08:19;100246.78;;;9.86;79.63
80323;BME280;69636;52.372;13.610;2024-03-25T12:10:47;100242.72;;;9.58;81.33
80323;BME280;69636;52.372;13.610;2024-03-25T12:13:13;100237.56;;;8.96;82.90
80323;BME280;69636;52.372;13.610;2024-03-25T12:15:40;100251.25;;;8.92;84.86
80323;BME280;69636;52.372;13.610;2024-03-25T12:18:06;100244.81;;;9.20;85.46
80323;BME280;69636;52.372;13.610;2024-03-25T12:20:32;100235.03;;;9.46;82.91
80323;BME280;69636;52.372;13.610;2024-03-25T12:23:01;100245.09;;;10.43;81.12
80323;BME280;69636;52.372;13.610;2024-03-25T12:25:27;100231.78;;;11.16;74.06
80323;BME280;69636;52.372;13.610;2024-03-25T12:27:55;100232.91;;;11.22;72.54
80323;BME280;69636;52.372;13.610;2024-03-25T12:30:21;100228.16;;;11.56;72.87
80323;BME280;69636;52.372;13.610;2024-03-25T12:32:48;100235.97;;;10.78;75.30
80323;BME280;69636;52.372;13.610;2024-03-25T12:35:15;100237.97;;;10.84;73.73
80323;BME280;69636;52.372;13.610;2024-03-25T12:37:43;100237.44;;;10.97;76.40
80323;BME280;69636;52.372;13.610;2024-03-25T12:40:11;100237.31;;;10.82;72.52
80323;BME280;69636;52.372;13.610;2024-03-25T12:42:38;100239.97;;;10.34;73.91